sensor_id;sensor_type;location;lat;lon;timestamp;pressure;altitude;pressure_sealevel;temperature
42197;BMP280;27866;48.146;17.098;2023-04-15T00:00:41;98374.13;;;9.85
42197;BMP280;27866;48.146;17.098;2023-04-15T00:04:52;98375.34;;;10.00
42197;BMP280;27866;48.146;17.098;2023-04-15T00:09:04;98379.44;;;9.93
42197;BMP280;27866;48.146;17.098;2023-04-15T00:13:15;98383.75;;;9.84
42197;BMP280;27866;48.146;17.098;2023-04-15T00:17:26;98387.72;;;9.87
42197;BMP280;27866;48.146;17.098;2023-04-15T00:21:38;98388.97;;;10.02
42197;BMP280;27866;48.146;17.098;2023-04-15T00:25:49;98395.91;;;10.11
42197;BMP280;27866;48.146;17.098;2023-04-15T00:30:00;98387.75;;;9.97
42197;BMP280;27866;48.146;17.098;2023-04-15T00:34:12;98387.19;;;9.93
42197;BMP280;27866;48.146;17.098;2023-04-15T00:38:23;98392.09;;;10.05
42197;BMP280;27866;48.146;17.098;2023-04-15T00:42:35;98397.72;;;10.10
42197;BMP280;27866;48.146;17.098;2023-04-15T00:46:47;98400.38;;;9.99
42197;BMP280;27866;48.146;17.098;2023-04-15T00:51:00;98397.78;;;9.90
42197;BMP280;27866;48.146;17.098;2023-04-15T00:55:12;98404.69;;;9.81
42197;BMP280;27866;48.146;17.098;2023-04-15T00:59:23;98401.00;;;9.74
42197;BMP280;27866;48.146;17.098;2023-04-15T01:03:35;98393.25;;;9.74
42197;BMP280;27866;48.146;17.098;2023-04-15T01:07:47;98403.09;;;9.60
42197;BMP280;27866;48.146;17.098;2023-04-15T01:11:58;98401.00;;;9.45
42197;BMP280;27866;48.146;17.098;2023-04-15T01:16:10;98405.88;;;9.39
42197;BMP280;27866;48.146;17.098;2023-04-15T01:20:22;98404.97;;;9.49
42197;BMP280;27866;48.146;17.098;2023-04-15T01:24:33;98405.47;;;9.43
42197;BMP280;27866;48.146;17.098;2023-04-15T01:28:45;98410.63;;;9.43
42197;BMP280;27866;48.146;17.098;2023-04-15T01:32:56;98408.75;;;9.45
42197;BMP280;27866;48.146;17.098;2023-04-15T01:37:08;98421.69;;;9.54
42197;BMP280;27866;48.146;17.098;2023-04-15T01:41:26;98408.19;;;9.41
42197;BMP280;27866;48.146;17.098;2023-04-15T01:45:37;98417.00;;;9.39
42197;BMP280;27866;48.146;17.098;2023-04-15T01:49:49;98412.34;;;9.33
42197;BMP280;27866;48.146;17.098;2023-04-15T01:54:00;98416.81;;;9.31
42197;BMP280;27866;48.146;17.098;2023-04-15T01:58:11;98411.94;;;9.28
42197;BMP280;27866;48.146;17.098;2023-04-15T02:02:22;98420.94;;;9.34
42197;BMP280;27866;48.146;17.098;2023-04-15T02:06:34;98427.16;;;9.31
42197;BMP280;27866;48.146;17.098;2023-04-15T02:10:46;98427.00;;;9.24
42197;BMP280;27866;48.146;17.098;2023-04-15T02:14:57;98417.41;;;9.35
42197;BMP280;27866;48.146;17.098;2023-04-15T02:19:08;98417.69;;;9.41
42197;BMP280;27866;48.146;17.098;2023-04-15T02:23:21;98408.09;;;9.52
42197;BMP280;27866;48.146;17.098;2023-04-15T02:27:33;98415.47;;;9.56
42197;BMP280;27866;48.146;17.098;2023-04-15T02:31:45;98411.75;;;9.41
42197;BMP280;27866;48.146;17.098;2023-04-15T02:35:58;98416.44;;;9.36
42197;BMP280;27866;48.146;17.098;2023-04-15T02:40:11;98412.81;;;9.38
42197;BMP280;27866;48.146;17.098;2023-04-15T02:44:23;98418.78;;;9.39
42197;BMP280;27866;48.146;17.098;2023-04-15T02:48:38;98416.44;;;9.55
42197;BMP280;27866;48.146;17.098;2023-04-15T02:52:50;98413.22;;;9.43
42197;BMP280;27866;48.146;17.098;2023-04-15T02:57:02;98412.19;;;9.55
42197;BMP280;27866;48.146;17.098;2023-04-15T03:01:16;98409.25;;;9.39
42197;BMP280;27866;48.146;17.098;2023-04-15T03:05:27;98413.25;;;9.52
42197;BMP280;27866;48.146;17.098;2023-04-15T03:09:38;98414.69;;;9.36
42197;BMP280;27866;48.146;17.098;2023-04-15T03:13:51;98418.97;;;9.46
42197;BMP280;27866;48.146;17.098;2023-04-15T03:18:12;98417.69;;;9.41
42197;BMP280;27866;48.146;17.098;2023-04-15T03:22:24;98418.31;;;9.54
42197;BMP280;27866;48.146;17.098;2023-04-15T03:26:38;98407.94;;;9.44
42197;BMP280;27866;48.146;17.098;2023-04-15T03:30:56;98417.00;;;9.68
42197;BMP280;27866;48.146;17.098;2023-04-15T03:35:07;98414.00;;;9.63
42197;BMP280;27866;48.146;17.098;2023-04-15T03:39:19;98413.25;;;9.72
42197;BMP280;27866;48.146;17.098;2023-04-15T03:43:30;98417.34;;;9.74
42197;BMP280;27866;48.146;17.098;2023-04-15T03:47:41;98430.13;;;9.76
42197;BMP280;27866;48.146;17.098;2023-04-15T03:51:53;98428.09;;;9.79
42197;BMP280;27866;48.146;17.098;2023-04-15T03:56:04;98429.78;;;9.99
42197;BMP280;27866;48.146;17.098;2023-04-15T04:00:16;98427.91;;;10.00
42197;BMP280;27866;48.146;17.098;2023-04-15T04:04:27;98435.78;;;9.99
42197;BMP280;27866;48.146;17.098;2023-04-15T04:08:38;98431.16;;;9.93
42197;BMP280;27866;48.146;17.098;2023-04-15T04:12:49;98441.19;;;9.87
42197;BMP280;27866;48.146;17.098;2023-04-15T04:17:00;98437.69;;;9.97
42197;BMP280;27866;48.146;17.098;2023-04-15T04:21:12;98446.56;;;10.22
42197;BMP280;27866;48.146;17.098;2023-04-15T04:25:23;98453.38;;;10.14
42197;BMP280;27866;48.146;17.098;2023-04-15T04:29:34;98456.13;;;10.31
42197;BMP280;27866;48.146;17.098;2023-04-15T04:33:46;98464.59;;;10.33
42197;BMP280;27866;48.146;17.098;2023-04-15T04:37:57;98463.47;;;10.26
42197;BMP280;27866;48.146;17.098;2023-04-15T04:42:08;98455.59;;;10.37
42197;BMP280;27866;48.146;17.098;2023-04-15T04:46:19;98462.69;;;10.53
42197;BMP280;27866;48.146;17.098;2023-04-15T04:50:31;98460.78;;;10.55
42197;BMP280;27866;48.146;17.098;2023-04-15T04:54:43;98469.25;;;10.57
42197;BMP280;27866;48.146;17.098;2023-04-15T04:58:54;98470.59;;;10.52
42197;BMP280;27866;48.146;17.098;2023-04-15T05:03:05;98468.97;;;10.60
42197;BMP280;27866;48.146;17.098;2023-04-15T05:07:16;98478.22;;;10.81
42197;BMP280;27866;48.146;17.098;2023-04-15T05:11:28;98480.28;;;10.86
42197;BMP280;27866;48.146;17.098;2023-04-15T05:15:39;98479.34;;;10.69
42197;BMP280;27866;48.146;17.098;2023-04-15T05:19:53;98483.69;;;10.87
42197;BMP280;27866;48.146;17.098;2023-04-15T05:24:04;98479.88;;;10.82
42197;BMP280;27866;48.146;17.098;2023-04-15T05:28:16;98470.59;;;10.88
42197;BMP280;27866;48.146;17.098;2023-04-15T05:32:27;98479.19;;;10.98
42197;BMP280;27866;48.146;17.098;2023-04-15T05:36:38;98487.78;;;10.99
42197;BMP280;27866;48.146;17.098;2023-04-15T05:40:50;98483.53;;;10.98
42197;BMP280;27866;48.146;17.098;2023-04-15T05:45:01;98491.88;;;11.10
42197;BMP280;27866;48.146;17.098;2023-04-15T05:49:15;98491.19;;;10.99
42197;BMP280;27866;48.146;17.098;2023-04-15T05:53:26;98499.91;;;11.07
42197;BMP280;27866;48.146;17.098;2023-04-15T05:57:38;98491.44;;;11.05
42197;BMP280;27866;48.146;17.098;2023-04-15T06:01:49;98499.50;;;11.12
42197;BMP280;27866;48.146;17.098;2023-04-15T06:06:02;98500.56;;;11.18
42197;BMP280;27866;48.146;17.098;2023-04-15T06:10:13;98509.03;;;11.48
42197;BMP280;27866;48.146;17.098;2023-04-15T06:14:24;98507.69;;;11.88
42197;BMP280;27866;48.146;17.098;2023-04-15T06:18:35;98506.53;;;12.00
42197;BMP280;27866;48.146;17.098;2023-04-15T06:22:47;98517.81;;;12.17
42197;BMP280;27866;48.146;17.098;2023-04-15T06:26:58;98503.13;;;12.61
42197;BMP280;27866;48.146;17.098;2023-04-15T06:31:09;98510.50;;;12.82
42197;BMP280;27866;48.146;17.098;2023-04-15T06:35:21;98511.91;;;12.94
42197;BMP280;27866;48.146;17.098;2023-04-15T06:39:32;98517.38;;;12.91
42197;BMP280;27866;48.146;17.098;2023-04-15T06:43:43;98511.69;;;12.88
42197;BMP280;27866;48.146;17.098;2023-04-15T06:47:54;98516.06;;;12.87
42197;BMP280;27866;48.146;17.098;2023-04-15T06:52:06;98530.53;;;12.73
42197;BMP280;27866;48.146;17.098;2023-04-15T06:56:17;98532.00;;;12.75
42197;BMP280;27866;48.146;17.098;2023-04-15T07:00:28;98531.50;;;13.05
42197;BMP280;27866;48.146;17.098;2023-04-15T07:04:40;98545.81;;;13.26
42197;BMP280;27866;48.146;17.098;2023-04-15T07:08:52;98544.75;;;13.53
42197;BMP280;27866;48.146;17.098;2023-04-15T07:13:04;98532.94;;;13.59
42197;BMP280;27866;48.146;17.098;2023-04-15T07:17:15;98538.69;;;13.28
42197;BMP280;27866;48.146;17.098;2023-04-15T07:21:27;98539.16;;;12.90
42197;BMP280;27866;48.146;17.098;2023-04-15T07:25:38;98540.03;;;12.98
42197;BMP280;27866;48.146;17.098;2023-04-15T07:29:49;98550.81;;;13.20
42197;BMP280;27866;48.146;17.098;2023-04-15T07:34:02;98557.31;;;13.58
42197;BMP280;27866;48.146;17.098;2023-04-15T07:38:15;98552.53;;;13.87
42197;BMP280;27866;48.146;17.098;2023-04-15T07:42:26;98566.13;;;13.64
42197;BMP280;27866;48.146;17.098;2023-04-15T07:46:39;98562.69;;;13.39
42197;BMP280;27866;48.146;17.098;2023-04-15T07:50:50;98566.41;;;13.20
42197;BMP280;27866;48.146;17.098;2023-04-15T07:55:01;98571.00;;;13.43
42197;BMP280;27866;48.146;17.098;2023-04-15T07:59:14;98565.53;;;13.70
42197;BMP280;27866;48.146;17.098;2023-04-15T08:03:27;98578.09;;;13.91
42197;BMP280;27866;48.146;17.098;2023-04-15T08:07:39;98574.50;;;13.92
42197;BMP280;27866;48.146;17.098;2023-04-15T08:11:50;98572.78;;;14.01
42197;BMP280;27866;48.146;17.098;2023-04-15T08:16:23;98577.69;;;13.79
42197;BMP280;27866;48.146;17.098;2023-04-15T08:20:35;98581.91;;;13.63
42197;BMP280;27866;48.146;17.098;2023-04-15T08:24:46;98581.41;;;13.60
42197;BMP280;27866;48.146;17.098;2023-04-15T08:28:57;98587.69;;;13.57
42197;BMP280;27866;48.146;17.098;2023-04-15T08:33:09;98589.19;;;13.77
42197;BMP280;27866;48.146;17.098;2023-04-15T08:37:20;98594.16;;;13.70
42197;BMP280;27866;48.146;17.098;2023-04-15T08:41:47;98599.19;;;13.89
42197;BMP280;27866;48.146;17.098;2023-04-15T08:46:02;98596.22;;;14.58
42197;BMP280;27866;48.146;17.098;2023-04-15T08:50:15;98596.50;;;15.81
42197;BMP280;27866;48.146;17.098;2023-04-15T08:54:26;98588.69;;;17.40
42197;BMP280;27866;48.146;17.098;2023-04-15T08:58:38;98586.94;;;18.33
42197;BMP280;27866;48.146;17.098;2023-04-15T09:02:49;98584.75;;;18.23
42197;BMP280;27866;48.146;17.098;2023-04-15T09:07:01;98583.09;;;18.57
42197;BMP280;27866;48.146;17.098;2023-04-15T09:11:13;98591.28;;;18.55
42197;BMP280;27866;48.146;17.098;2023-04-15T09:15:24;98593.50;;;19.62
42197;BMP280;27866;48.146;17.098;2023-04-15T09:19:39;98592.59;;;20.36
42197;BMP280;27866;48.146;17.098;2023-04-15T09:23:59;98586.63;;;20.55
42197;BMP280;27866;48.146;17.098;2023-04-15T09:28:11;98589.84;;;19.43
42197;BMP280;27866;48.146;17.098;2023-04-15T09:32:22;98599.50;;;19.56
42197;BMP280;27866;48.146;17.098;2023-04-15T09:36:55;98605.25;;;19.45
42197;BMP280;27866;48.146;17.098;2023-04-15T09:41:16;98602.44;;;19.33
42197;BMP280;27866;48.146;17.098;2023-04-15T09:45:30;98600.34;;;20.24
42197;BMP280;27866;48.146;17.098;2023-04-15T09:49:55;98588.50;;;21.45
42197;BMP280;27866;48.146;17.098;2023-04-15T09:54:07;98601.25;;;19.35
42197;BMP280;27866;48.146;17.098;2023-04-15T09:58:20;98604.97;;;18.64
42197;BMP280;27866;48.146;17.098;2023-04-15T10:02:32;98605.22;;;17.62
42197;BMP280;27866;48.146;17.098;2023-04-15T10:06:43;98608.81;;;17.61
42197;BMP280;27866;48.146;17.098;2023-04-15T10:10:55;98610.69;;;17.23
42197;BMP280;27866;48.146;17.098;2023-04-15T10:15:14;98617.47;;;16.65
42197;BMP280;27866;48.146;17.098;2023-04-15T10:19:27;98616.56;;;16.43
42197;BMP280;27866;48.146;17.098;2023-04-15T10:23:41;98617.59;;;16.26
42197;BMP280;27866;48.146;17.098;2023-04-15T10:27:53;98623.50;;;16.81
42197;BMP280;27866;48.146;17.098;2023-04-15T10:32:06;98622.97;;;17.23
42197;BMP280;27866;48.146;17.098;2023-04-15T10:36:18;98626.13;;;17.11
42197;BMP280;27866;48.146;17.098;2023-04-15T10:40:31;98627.81;;;17.33
42197;BMP280;27866;48.146;17.098;2023-04-15T10:44:47;98624.41;;;16.96
42197;BMP280;27866;48.146;17.098;2023-04-15T10:49:13;98631.19;;;16.67
42197;BMP280;27866;48.146;17.098;2023-04-15T10:53:28;98629.25;;;16.53
42197;BMP280;27866;48.146;17.098;2023-04-15T10:57:42;98630.81;;;15.94
42197;BMP280;27866;48.146;17.098;2023-04-15T11:01:59;98633.91;;;16.13
42197;BMP280;27866;48.146;17.098;2023-04-15T11:06:11;98637.31;;;16.21
42197;BMP280;27866;48.146;17.098;2023-04-15T11:14:40;98649.59;;;16.13
42197;BMP280;27866;48.146;17.098;2023-04-15T11:18:54;98654.47;;;16.08
42197;BMP280;27866;48.146;17.098;2023-04-15T11:23:08;98650.88;;;16.01
42197;BMP280;27866;48.146;17.098;2023-04-15T11:27:23;98653.50;;;15.86
42197;BMP280;27866;48.146;17.098;2023-04-15T11:31:34;98662.66;;;16.05
42197;BMP280;27866;48.146;17.098;2023-04-15T11:35:45;98657.59;;;15.96
42197;BMP280;27866;48.146;17.098;2023-04-15T11:39:57;98665.56;;;15.94
42197;BMP280;27866;48.146;17.098;2023-04-15T11:44:18;98669.34;;;16.00
42197;BMP280;27866;48.146;17.098;2023-04-15T11:48:35;98673.09;;;16.21
42197;BMP280;27866;48.146;17.098;2023-04-15T11:53:01;98667.34;;;16.33
42197;BMP280;27866;48.146;17.098;2023-04-15T11:57:13;98674.63;;;16.83
42197;BMP280;27866;48.146;17.098;2023-04-15T12:01:37;98675.88;;;16.95
42197;BMP280;27866;48.146;17.098;2023-04-15T12:06:16;98668.28;;;17.53
42197;BMP280;27866;48.146;17.098;2023-04-15T12:10:30;98669.00;;;17.61
42197;BMP280;27866;48.146;17.098;2023-04-15T12:14:42;98668.25;;;17.23
42197;BMP280;27866;48.146;17.098;2023-04-15T12:18:57;98679.94;;;17.05
42197;BMP280;27866;48.146;17.098;2023-04-15T12:23:11;98676.53;;;16.97
42197;BMP280;27866;48.146;17.098;2023-04-15T12:27:25;98684.16;;;17.14
42197;BMP280;27866;48.146;17.098;2023-04-15T12:31:50;98673.72;;;17.95
42197;BMP280;27866;48.146;17.098;2023-04-15T12:36:03;98675.75;;;19.06
42197;BMP280;27866;48.146;17.098;2023-04-15T12:40:14;98678.34;;;19.97
42197;BMP280;27866;48.146;17.098;2023-04-15T12:44:26;98672.09;;;19.84
42197;BMP280;27866;48.146;17.098;2023-04-15T12:48:39;98676.56;;;19.83
42197;BMP280;27866;48.146;17.098;2023-04-15T12:52:51;98683.53;;;20.31
42197;BMP280;27866;48.146;17.098;2023-04-15T12:57:03;98675.25;;;21.53
42197;BMP280;27866;48.146;17.098;2023-04-15T13:01:14;98671.41;;;23.08
42197;BMP280;27866;48.146;17.098;2023-04-15T13:05:25;98671.41;;;24.11
42197;BMP280;27866;48.146;17.098;2023-04-15T13:09:37;98661.69;;;25.41
42197;BMP280;27866;48.146;17.098;2023-04-15T13:13:49;98672.44;;;24.10
42197;BMP280;27866;48.146;17.098;2023-04-15T13:18:05;98676.09;;;22.87
42197;BMP280;27866;48.146;17.098;2023-04-15T13:22:17;98685.31;;;21.82
42197;BMP280;27866;48.146;17.098;2023-04-15T13:26:28;98689.38;;;21.00
42197;BMP280;27866;48.146;17.098;2023-04-15T13:30:41;98683.41;;;20.65
42197;BMP280;27866;48.146;17.098;2023-04-15T13:34:54;98688.66;;;19.98
42197;BMP280;27866;48.146;17.098;2023-04-15T13:39:06;98694.41;;;18.97
42197;BMP280;27866;48.146;17.098;2023-04-15T13:43:17;98701.75;;;17.94
42197;BMP280;27866;48.146;17.098;2023-04-15T13:47:28;98711.06;;;17.30
42197;BMP280;27866;48.146;17.098;2023-04-15T13:51:40;98724.81;;;16.64
42197;BMP280;27866;48.146;17.098;2023-04-15T13:55:51;98722.06;;;16.11
42197;BMP280;27866;48.146;17.098;2023-04-15T14:00:03;98728.44;;;15.61
42197;BMP280;27866;48.146;17.098;2023-04-15T14:04:17;98749.09;;;15.39
42197;BMP280;27866;48.146;17.098;2023-04-15T14:08:29;98756.19;;;15.22
42197;BMP280;27866;48.146;17.098;2023-04-15T14:12:43;98762.53;;;15.19
42197;BMP280;27866;48.146;17.098;2023-04-15T14:16:54;98756.19;;;15.62
42197;BMP280;27866;48.146;17.098;2023-04-15T14:21:06;98745.41;;;16.36
42197;BMP280;27866;48.146;17.098;2023-04-15T14:25:17;98749.66;;;17.65
42197;BMP280;27866;48.146;17.098;2023-04-15T14:29:29;98752.91;;;20.16
42197;BMP280;27866;48.146;17.098;2023-04-15T14:33:41;98737.63;;;22.93
42197;BMP280;27866;48.146;17.098;2023-04-15T14:37:53;98740.03;;;20.82
42197;BMP280;27866;48.146;17.098;2023-04-15T14:42:04;98756.66;;;19.03
42197;BMP280;27866;48.146;17.098;2023-04-15T14:46:15;98772.09;;;17.68
42197;BMP280;27866;48.146;17.098;2023-04-15T14:50:27;98778.66;;;17.11
42197;BMP280;27866;48.146;17.098;2023-04-15T14:54:38;98784.41;;;16.99
42197;BMP280;27866;48.146;17.098;2023-04-15T14:58:49;98785.44;;;16.82
42197;BMP280;27866;48.146;17.098;2023-04-15T15:03:03;98789.47;;;16.38
42197;BMP280;27866;48.146;17.098;2023-04-15T15:07:22;98793.56;;;16.41
42197;BMP280;27866;48.146;17.098;2023-04-15T15:11:33;98803.69;;;16.44
42197;BMP280;27866;48.146;17.098;2023-04-15T15:15:45;98805.63;;;16.19
42197;BMP280;27866;48.146;17.098;2023-04-15T15:19:59;98815.09;;;18.54
42197;BMP280;27866;48.146;17.098;2023-04-15T15:24:10;98805.94;;;20.74
42197;BMP280;27866;48.146;17.098;2023-04-15T15:28:22;98813.56;;;20.15
42197;BMP280;27866;48.146;17.098;2023-04-15T15:32:33;98820.94;;;19.35
42197;BMP280;27866;48.146;17.098;2023-04-15T15:36:45;98820.91;;;18.20
42197;BMP280;27866;48.146;17.098;2023-04-15T15:40:56;98821.75;;;18.20
42197;BMP280;27866;48.146;17.098;2023-04-15T15:45:07;98824.97;;;17.55
42197;BMP280;27866;48.146;17.098;2023-04-15T15:49:19;98829.81;;;17.21
42197;BMP280;27866;48.146;17.098;2023-04-15T15:53:30;98827.88;;;16.53
42197;BMP280;27866;48.146;17.098;2023-04-15T15:57:41;98831.25;;;16.23
42197;BMP280;27866;48.146;17.098;2023-04-15T16:01:53;98841.22;;;16.20
42197;BMP280;27866;48.146;17.098;2023-04-15T16:06:04;98850.31;;;16.08
42197;BMP280;27866;48.146;17.098;2023-04-15T16:10:15;98850.38;;;15.83
42197;BMP280;27866;48.146;17.098;2023-04-15T16:14:27;98855.97;;;15.56
42197;BMP280;27866;48.146;17.098;2023-04-15T16:18:38;98863.75;;;15.48
42197;BMP280;27866;48.146;17.098;2023-04-15T16:22:49;98865.63;;;15.63
42197;BMP280;27866;48.146;17.098;2023-04-15T16:27:01;98868.22;;;15.88
42197;BMP280;27866;48.146;17.098;2023-04-15T16:31:12;98863.66;;;15.90
42197;BMP280;27866;48.146;17.098;2023-04-15T16:35:24;98867.84;;;15.83
42197;BMP280;27866;48.146;17.098;2023-04-15T16:39:35;98880.97;;;15.66
42197;BMP280;27866;48.146;17.098;2023-04-15T16:43:47;98887.13;;;15.33
42197;BMP280;27866;48.146;17.098;2023-04-15T16:47:58;98889.22;;;15.05
42197;BMP280;27866;48.146;17.098;2023-04-15T16:52:09;98898.19;;;14.85
42197;BMP280;27866;48.146;17.098;2023-04-15T16:56:21;98912.38;;;14.57
42197;BMP280;27866;48.146;17.098;2023-04-15T17:00:33;98915.03;;;14.31
42197;BMP280;27866;48.146;17.098;2023-04-15T17:04:46;98925.06;;;14.09
42197;BMP280;27866;48.146;17.098;2023-04-15T17:08:57;98930.22;;;13.83
42197;BMP280;27866;48.146;17.098;2023-04-15T17:13:09;98933.91;;;13.54
42197;BMP280;27866;48.146;17.098;2023-04-15T17:17:21;98937.38;;;13.27
42197;BMP280;27866;48.146;17.098;2023-04-15T17:21:33;98946.84;;;13.10
42197;BMP280;27866;48.146;17.098;2023-04-15T17:25:44;98951.41;;;12.89
42197;BMP280;27866;48.146;17.098;2023-04-15T17:29:56;98961.78;;;12.71
42197;BMP280;27866;48.146;17.098;2023-04-15T17:34:07;98964.94;;;12.56
42197;BMP280;27866;48.146;17.098;2023-04-15T17:38:18;98973.88;;;12.43
42197;BMP280;27866;48.146;17.098;2023-04-15T17:42:30;98981.47;;;12.26
42197;BMP280;27866;48.146;17.098;2023-04-15T17:46:41;98986.38;;;12.11
42197;BMP280;27866;48.146;17.098;2023-04-15T17:50:52;98984.84;;;11.99
42197;BMP280;27866;48.146;17.098;2023-04-15T17:55:05;99000.47;;;11.88
42197;BMP280;27866;48.146;17.098;2023-04-15T17:59:17;99009.97;;;11.79
42197;BMP280;27866;48.146;17.098;2023-04-15T18:03:28;99017.34;;;11.74
42197;BMP280;27866;48.146;17.098;2023-04-15T18:07:39;99023.72;;;11.70
42197;BMP280;27866;48.146;17.098;2023-04-15T18:11:51;99039.81;;;11.64
42197;BMP280;27866;48.146;17.098;2023-04-15T18:16:02;99043.72;;;11.59
42197;BMP280;27866;48.146;17.098;2023-04-15T18:20:14;99046.56;;;11.56
42197;BMP280;27866;48.146;17.098;2023-04-15T18:24:25;99047.09;;;11.50
42197;BMP280;27866;48.146;17.098;2023-04-15T18:28:38;99056.88;;;11.47
42197;BMP280;27866;48.146;17.098;2023-04-15T18:32:49;99063.53;;;11.40
42197;BMP280;27866;48.146;17.098;2023-04-15T18:37:01;99070.97;;;11.34
42197;BMP280;27866;48.146;17.098;2023-04-15T18:41:13;99068.31;;;11.25
42197;BMP280;27866;48.146;17.098;2023-04-15T18:45:24;99073.13;;;11.18
42197;BMP280;27866;48.146;17.098;2023-04-15T18:49:35;99084.69;;;11.14
42197;BMP280;27866;48.146;17.098;2023-04-15T18:53:46;99095.31;;;11.12
42197;BMP280;27866;48.146;17.098;2023-04-15T18:57:58;99101.81;;;11.06
42197;BMP280;27866;48.146;17.098;2023-04-15T19:02:09;99100.41;;;11.02
42197;BMP280;27866;48.146;17.098;2023-04-15T19:06:20;99111.47;;;10.94
42197;BMP280;27866;48.146;17.098;2023-04-15T19:10:33;99116.34;;;10.87
42197;BMP280;27866;48.146;17.098;2023-04-15T19:14:45;99126.34;;;10.81
42197;BMP280;27866;48.146;17.098;2023-04-15T19:18:56;99129.56;;;10.74
42197;BMP280;27866;48.146;17.098;2023-04-15T19:23:09;99130.28;;;10.65
42197;BMP280;27866;48.146;17.098;2023-04-15T19:27:21;99136.16;;;10.57
42197;BMP280;27866;48.146;17.098;2023-04-15T19:31:32;99145.34;;;10.50
42197;BMP280;27866;48.146;17.098;2023-04-15T19:35:43;99153.34;;;10.47
42197;BMP280;27866;48.146;17.098;2023-04-15T19:39:54;99156.63;;;10.49
42197;BMP280;27866;48.146;17.098;2023-04-15T19:44:06;99167.34;;;10.44
42197;BMP280;27866;48.146;17.098;2023-04-15T19:48:18;99173.47;;;10.43
42197;BMP280;27866;48.146;17.098;2023-04-15T19:52:29;99163.34;;;10.41
42197;BMP280;27866;48.146;17.098;2023-04-15T19:56:41;99176.75;;;10.35
42197;BMP280;27866;48.146;17.098;2023-04-15T20:00:52;99173.94;;;10.27
42197;BMP280;27866;48.146;17.098;2023-04-15T20:05:04;99182.63;;;10.26
42197;BMP280;27866;48.146;17.098;2023-04-15T20:09:19;99188.50;;;10.28
42197;BMP280;27866;48.146;17.098;2023-04-15T20:13:30;99190.50;;;10.25
42197;BMP280;27866;48.146;17.098;2023-04-15T20:17:43;99195.09;;;10.21
42197;BMP280;27866;48.146;17.098;2023-04-15T20:21:54;99192.00;;;10.16
42197;BMP280;27866;48.146;17.098;2023-04-15T20:26:06;99198.72;;;10.19
42197;BMP280;27866;48.146;17.098;2023-04-15T20:30:17;99207.06;;;10.22
42197;BMP280;27866;48.146;17.098;2023-04-15T20:34:29;99211.31;;;10.23
42197;BMP280;27866;48.146;17.098;2023-04-15T20:38:40;99215.53;;;10.24
42197;BMP280;27866;48.146;17.098;2023-04-15T20:42:52;99205.19;;;10.24
42197;BMP280;27866;48.146;17.098;2023-04-15T20:47:04;99209.56;;;10.24
42197;BMP280;27866;48.146;17.098;2023-04-15T20:51:16;99215.31;;;10.27
42197;BMP280;27866;48.146;17.098;2023-04-15T20:55:27;99212.03;;;10.36
42197;BMP280;27866;48.146;17.098;2023-04-15T20:59:38;99215.69;;;10.44
42197;BMP280;27866;48.146;17.098;2023-04-15T21:03:49;99218.88;;;10.47
42197;BMP280;27866;48.146;17.098;2023-04-15T21:08:01;99214.28;;;10.51
42197;BMP280;27866;48.146;17.098;2023-04-15T21:12:12;99223.56;;;10.53
42197;BMP280;27866;48.146;17.098;2023-04-15T21:16:23;99235.81;;;10.51
42197;BMP280;27866;48.146;17.098;2023-04-15T21:20:35;99229.09;;;10.49
42197;BMP280;27866;48.146;17.098;2023-04-15T21:24:46;99231.09;;;10.45
42197;BMP280;27866;48.146;17.098;2023-04-15T21:28:58;99237.81;;;10.48
42197;BMP280;27866;48.146;17.098;2023-04-15T21:33:10;99240.75;;;10.43
42197;BMP280;27866;48.146;17.098;2023-04-15T21:37:21;99241.44;;;10.35
42197;BMP280;27866;48.146;17.098;2023-04-15T21:41:32;99249.16;;;10.24
42197;BMP280;27866;48.146;17.098;2023-04-15T21:45:44;99254.53;;;10.11
42197;BMP280;27866;48.146;17.098;2023-04-15T21:49:55;99260.41;;;10.02
42197;BMP280;27866;48.146;17.098;2023-04-15T21:54:06;99264.97;;;9.99
42197;BMP280;27866;48.146;17.098;2023-04-15T21:58:17;99267.06;;;9.94
42197;BMP280;27866;48.146;17.098;2023-04-15T22:02:28;99275.66;;;9.94
42197;BMP280;27866;48.146;17.098;2023-04-15T22:06:40;99275.78;;;9.93
42197;BMP280;27866;48.146;17.098;2023-04-15T22:10:51;99290.69;;;9.89
42197;BMP280;27866;48.146;17.098;2023-04-15T22:15:03;99285.97;;;9.84
42197;BMP280;27866;48.146;17.098;2023-04-15T22:19:14;99286.53;;;9.76
42197;BMP280;27866;48.146;17.098;2023-04-15T22:23:25;99298.19;;;9.69
42197;BMP280;27866;48.146;17.098;2023-04-15T22:27:37;99294.28;;;9.64
42197;BMP280;27866;48.146;17.098;2023-04-15T22:31:48;99300.72;;;9.59
42197;BMP280;27866;48.146;17.098;2023-04-15T22:35:59;99306.09;;;9.56
42197;BMP280;27866;48.146;17.098;2023-04-15T22:40:11;99311.38;;;9.55
42197;BMP280;27866;48.146;17.098;2023-04-15T22:44:22;99316.66;;;9.53
42197;BMP280;27866;48.146;17.098;2023-04-15T22:48:34;99318.22;;;9.55
42197;BMP280;27866;48.146;17.098;2023-04-15T22:52:45;99323.69;;;9.51
42197;BMP280;27866;48.146;17.098;2023-04-15T22:56:58;99316.97;;;9.49
42197;BMP280;27866;48.146;17.098;2023-04-15T23:01:09;99328.69;;;9.42
42197;BMP280;27866;48.146;17.098;2023-04-15T23:05:20;99342.97;;;9.35
42197;BMP280;27866;48.146;17.098;2023-04-15T23:09:32;99334.72;;;9.30
42197;BMP280;27866;48.146;17.098;2023-04-15T23:13:43;99348.16;;;9.23
42197;BMP280;27866;48.146;17.098;2023-04-15T23:17:54;99340.97;;;9.16
42197;BMP280;27866;48.146;17.098;2023-04-15T23:22:05;99347.03;;;9.15
42197;BMP280;27866;48.146;17.098;2023-04-15T23:26:20;99350.03;;;9.09
42197;BMP280;27866;48.146;17.098;2023-04-15T23:30:31;99349.53;;;9.04
42197;BMP280;27866;48.146;17.098;2023-04-15T23:34:43;99359.34;;;8.99
42197;BMP280;27866;48.146;17.098;2023-04-15T23:38:54;99359.75;;;8.94
42197;BMP280;27866;48.146;17.098;2023-04-15T23:43:05;99361.63;;;8.92
42197;BMP280;27866;48.146;17.098;2023-04-15T23:47:16;99370.41;;;8.89
42197;BMP280;27866;48.146;17.098;2023-04-15T23:51:28;99358.53;;;8.87
42197;BMP280;27866;48.146;17.098;2023-04-15T23:55:39;99367.13;;;8.87
42197;BMP280;27866;48.146;17.098;2023-04-15T23:59:51;99375.78;;;8.86
